Time;durP1;ratioP1;P1;durP2;ratioP2;P2;SDS_P1;SDS_P2;PMS_P1;PMS_P2;Temp;Humidity;BMP_temperature;BMP_pressure;BME280_temperature;BME280_humidity;BME280_pressure;Samples;Min_cycle;Max_cycle;Signal;HPM_P1;HPM_P2
2021/10/11 00:05:00;;;;;;;7.37;3.97;;;;;;;8.59;100.00;95039.03;10159252;29;20288;-74
2021/10/11 00:10:00;;;;;;;4.45;3.33;;;;;;;8.51;100.00;95037.59;10157751;29;20276;-68
2021/10/11 00:15:01;;;;;;;5.85;3.70;;;;;;;8.49;100.00;95027.13;10157695;29;20032;-68
2021/10/11 00:20:03;;;;;;;7.07;4.60;;;;;;;8.50;100.00;95023.41;10176844;29;20024;-67
2021/10/11 00:25:07;;;;;;;5.90;4.00;;;;;;;8.50;100.00;95025.28;10180224;29;20059;-74
2021/10/11 00:30:11;;;;;;;7.07;4.63;;;;;;;8.35;100.00;95015.97;10165283;29;20119;-67
2021/10/11 00:35:12;;;;;;;7.20;3.80;;;;;;;8.22;100.00;95013.72;10148758;29;20063;-68
2021/10/11 00:40:12;;;;;;;7.63;3.92;;;;;;;8.20;100.00;95013.16;10180484;29;20119;-67
2021/10/11 00:45:12;;;;;;;6.88;4.43;;;;;;;8.20;100.00;95007.78;10164758;29;20019;-68
2021/10/11 00:50:13;;;;;;;6.78;3.88;;;;;;;8.16;100.00;94998.63;10163725;29;20491;-68
2021/10/11 00:55:14;;;;;;;8.70;4.05;;;;;;;8.16;100.00;95001.31;10148024;29;20055;-67
2021/10/11 01:00:14;;;;;;;7.50;4.15;;;;;;;8.20;100.00;94997.09;10179695;29;20195;-73
2021/10/11 01:05:15;;;;;;;7.10;4.57;;;;;;;8.18;100.00;94988.50;10162843;29;20048;-74
2021/10/11 01:10:16;;;;;;;6.93;4.55;;;;;;;8.23;100.00;94987.75;10163559;29;20036;-72
2021/10/11 01:15:16;;;;;;;7.95;4.25;;;;;;;8.27;100.00;94981.63;10171390;29;20134;-74
2021/10/11 01:20:17;;;;;;;4.70;3.47;;;;;;;8.29;100.00;94974.16;10202525;29;20023;-70
2021/10/11 01:25:17;;;;;;;4.97;3.10;;;;;;;8.32;100.00;94964.81;10201504;29;20271;-72
2021/10/11 01:30:19;;;;;;;6.53;3.67;;;;;;;8.34;100.00;94952.78;10197018;29;20529;-67
2021/10/11 01:35:19;;;;;;;5.65;3.42;;;;;;;8.38;100.00;94959.22;10178416;29;20126;-72
2021/10/11 01:40:20;;;;;;;6.32;4.18;;;;;;;8.44;100.00;94957.44;10161367;29;20110;-68
2021/10/11 01:45:21;;;;;;;8.82;3.95;;;;;;;8.45;100.00;94950.22;10175166;29;20022;-74
2021/10/11 01:50:21;;;;;;;5.53;3.78;;;;;;;8.46;100.00;94947.28;10161899;29;20123;-71
2021/10/11 01:55:21;;;;;;;5.47;4.10;;;;;;;8.60;100.00;94947.69;10161034;29;20036;-72
2021/10/11 02:00:22;;;;;;;4.43;3.50;;;;;;;8.74;100.00;94941.91;10161425;29;20281;-71
2021/10/11 02:05:22;;;;;;;4.50;3.30;;;;;;;8.74;100.00;94929.31;10161408;29;20557;-73
2021/10/11 02:10:23;;;;;;;5.45;3.67;;;;;;;8.68;100.00;94928.47;10160998;29;20483;-72
2021/10/11 02:15:23;;;;;;;4.07;3.07;;;;;;;8.59;100.00;94938.03;10161319;29;20036;-73
2021/10/11 02:20:24;;;;;;;5.22;3.42;;;;;;;8.59;100.00;94934.56;10160911;29;20978;-74
2021/10/11 02:25:25;;;;;;;5.82;3.63;;;;;;;8.63;100.00;94923.06;10175664;29;20044;-72
2021/10/11 02:30:26;;;;;;;6.65;3.90;;;;;;;8.59;100.00;94916.59;10176231;29;20072;-68
2021/10/11 02:35:26;;;;;;;7.75;4.32;;;;;;;8.62;100.00;94915.28;10162153;29;20036;-67
2021/10/11 02:40:26;;;;;;;4.57;3.63;;;;;;;8.61;100.00;94917.16;10160677;29;20681;-70
2021/10/11 02:45:27;;;;;;;3.75;2.85;;;;;;;8.55;100.00;94918.16;10141931;29;20032;-73
2021/10/11 02:50:27;;;;;;;3.92;2.30;;;;;;;8.50;100.00;94915.47;10161758;29;20035;-73
2021/10/11 02:55:28;;;;;;;3.88;2.55;;;;;;;8.54;100.00;94920.03;10175412;29;20055;-69
2021/10/11 03:00:28;;;;;;;4.32;2.72;;;;;;;8.48;100.00;94912.22;10143767;29;20031;-73
2021/10/11 03:05:30;;;;;;;3.50;2.65;;;;;;;8.43;100.00;94904.94;10159289;29;20059;-75
2021/10/11 03:10:31;;;;;;;3.35;3.05;;;;;;;8.47;100.00;94910.59;10160730;29;20062;-72
2021/10/11 03:15:31;;;;;;;3.78;2.22;;;;;;;8.38;100.00;94903.00;10174490;29;20123;-73
2021/10/11 03:20:31;;;;;;;2.55;2.20;;;;;;;8.32;100.00;94896.00;10159532;29;20016;-71
2021/10/11 03:25:32;;;;;;;4.37;2.97;;;;;;;8.33;100.00;94894.94;10174290;29;20032;-66
2021/10/11 03:30:33;;;;;;;4.05;2.70;;;;;;;8.33;100.00;94900.28;10167235;29;20319;-69
2021/10/11 03:35:33;;;;;;;3.92;2.80;;;;;;;8.22;100.00;94893.25;10174466;29;20032;-72
2021/10/11 03:40:34;;;;;;;5.10;2.78;;;;;;;8.19;100.00;94886.50;10174511;29;20032;-71
2021/10/11 03:45:34;;;;;;;5.07;2.80;;;;;;;8.17;100.00;94883.28;10157841;29;20016;-69
2021/10/11 03:50:34;;;;;;;5.55;3.65;;;;;;;8.19;100.00;94886.50;10152686;29;20047;-70
2021/10/11 03:55:35;;;;;;;5.80;3.40;;;;;;;8.16;100.00;94887.03;10162883;29;20639;-67
2021/10/11 04:00:36;;;;;;;6.67;3.10;;;;;;;8.09;100.00;94882.94;10165956;29;20028;-68
2021/10/11 04:05:37;;;;;;;5.30;3.50;;;;;;;8.09;100.00;94877.56;10203116;29;20331;-71
2021/10/11 04:10:54;;;;;;;3.95;2.67;;;;;;;8.03;100.00;94880.19;10195846;29;20024;-66
2021/10/11 04:15:55;;;;;;;5.60;3.47;;;;;;;7.96;100.00;94873.44;10165190;29;20039;-73
2021/10/11 04:20:55;;;;;;;3.97;3.35;;;;;;;7.96;100.00;94879.59;10164733;29;20195;-68
2021/10/11 04:25:56;;;;;;;3.35;3.05;;;;;;;7.93;100.00;94874.75;10180010;29;20116;-73
2021/10/11 04:30:57;;;;;;;4.88;3.00;;;;;;;7.93;100.00;94890.00;10176067;29;20019;-69
2021/10/11 04:35:58;;;;;;;10.65;3.72;;;;;;;7.93;100.00;94879.31;10203107;29;20020;-72
2021/10/11 04:40:59;;;;;;;3.88;3.13;;;;;;;7.94;100.00;94875.56;10185891;29;20043;-72
2021/10/11 04:45:59;;;;;;;4.38;2.95;;;;;;;7.95;100.00;94882.53;10164688;29;20046;-71
2021/10/11 04:51:00;;;;;;;2.97;2.60;;;;;;;7.96;100.00;94881.47;10177351;29;20038;-65
2021/10/11 04:56:00;;;;;;;4.95;3.08;;;;;;;7.87;100.00;94876.56;10145132;29;20122;-74
2021/10/11 05:01:00;;;;;;;3.77;2.80;;;;;;;7.94;100.00;94878.22;10176228;29;20044;-74
2021/10/11 05:06:01;;;;;;;6.80;4.30;;;;;;;8.02;100.00;94872.41;10161775;29;20383;-68
2021/10/11 05:11:01;;;;;;;6.53;4.40;;;;;;;8.15;100.00;94876.53;10163617;29;20272;-69
2021/10/11 05:16:02;;;;;;;6.20;2.88;;;;;;;8.11;100.00;94878.16;10163182;29;20277;-75
2021/10/11 05:21:02;;;;;;;3.35;2.33;;;;;;;8.03;100.00;94874.84;10167962;29;20411;-66
2021/10/11 05:26:02;;;;;;;4.78;2.92;;;;;;;8.05;100.00;94882.63;10162830;29;20367;-68
2021/10/11 05:31:03;;;;;;;4.57;2.93;;;;;;;7.99;100.00;94876.41;10161324;29;20032;-76
2021/10/11 05:36:04;;;;;;;6.40;3.95;;;;;;;8.01;100.00;94881.53;10162918;29;20292;-75
2021/10/11 05:41:05;;;;;;;6.88;4.47;;;;;;;8.11;100.00;94886.19;10160791;29;20035;-72
2021/10/11 05:46:06;;;;;;;4.70;3.40;;;;;;;8.08;100.00;94889.34;10176930;29;20035;-72
2021/10/11 05:51:07;;;;;;;8.15;3.55;;;;;;;8.07;100.00;94888.53;10161110;29;20410;-68
2021/10/11 05:56:07;;;;;;;6.90;4.13;;;;;;;8.07;100.00;94888.53;10178395;29;20063;-72
2021/10/11 06:01:07;;;;;;;8.88;4.70;;;;;;;8.03;100.00;94882.88;10176888;29;20107;-68
2021/10/11 06:06:08;;;;;;;10.95;5.75;;;;;;;7.99;100.00;94892.47;10161007;29;20083;-76
2021/10/11 06:11:08;;;;;;;7.13;5.07;;;;;;;8.12;100.00;94888.59;10160669;29;20032;-75
2021/10/11 06:16:09;;;;;;;7.93;5.20;;;;;;;8.12;100.00;94890.44;10160983;29;20652;-72
2021/10/11 06:21:09;;;;;;;9.30;5.25;;;;;;;8.16;100.00;94894.22;10160479;29;20124;-74
2021/10/11 06:26:10;;;;;;;8.68;5.13;;;;;;;8.23;100.00;94892.16;10161799;29;20142;-73
2021/10/11 06:31:10;;;;;;;8.48;4.80;;;;;;;8.14;100.00;94897.16;10161261;29;20339;-73
2021/10/11 06:36:11;;;;;;;13.25;4.82;;;;;;;8.16;100.00;94903.09;10175299;29;20526;-73
2021/10/11 06:41:11;;;;;;;10.63;6.43;;;;;;;8.12;100.00;94898.47;10160291;29;20036;-68
2021/10/11 06:46:11;;;;;;;10.07;6.70;;;;;;;8.13;100.00;94908.13;10159091;29;20407;-74
2021/10/11 06:51:12;;;;;;;10.77;6.50;;;;;;;8.19;100.00;94901.75;10159540;29;20055;-73
2021/10/11 06:56:12;;;;;;;7.57;4.15;;;;;;;8.20;100.00;94893.50;10158838;29;20264;-68
2021/10/11 07:01:13;;;;;;;4.63;2.90;;;;;;;8.26;100.00;94894.34;10158357;29;20423;-69
2021/10/11 07:06:23;;;;;;;3.90;2.70;;;;;;;8.25;100.00;94898.06;10174826;29;20284;-67
2021/10/11 07:11:24;;;;;;;4.43;2.75;;;;;;;8.35;100.00;94887.44;10158536;29;20111;-65
2021/10/11 07:16:24;;;;;;;5.93;2.20;;;;;;;8.43;100.00;94882.69;10160213;29;20490;-76
2021/10/11 07:21:25;;;;;;;2.22;1.60;;;;;;;8.52;100.00;94879.31;10174813;29;20359;-67
2021/10/11 07:26:25;;;;;;;4.97;1.85;;;;;;;8.63;100.00;94874.84;10173806;29;20446;-73
2021/10/11 07:31:26;;;;;;;4.27;2.80;;;;;;;8.75;100.00;94874.66;10157445;29;20024;-73
2021/10/11 07:36:26;;;;;;;2.38;2.00;;;;;;;8.83;100.00;94874.19;10173411;29;20280;-72
2021/10/11 07:41:26;;;;;;;4.17;2.30;;;;;;;8.92;100.00;94871.81;10157824;29;20028;-69
2021/10/11 07:46:28;;;;;;;4.60;2.38;;;;;;;9.04;100.00;94861.69;10157387;29;20292;-72
2021/10/11 07:51:28;;;;;;;5.33;2.60;;;;;;;9.07;100.00;94860.38;10173935;29;20095;-72
2021/10/11 07:56:29;;;;;;;4.05;2.75;;;;;;;9.09;100.00;94866.28;10173075;29;21400;-69
2021/10/11 08:01:29;;;;;;;4.05;2.63;;;;;;;9.09;100.00;94852.88;10172820;29;20077;-71
2021/10/11 08:06:32;;;;;;;5.75;3.22;;;;;;;9.05;100.00;94847.22;10158546;29;20040;-73
2021/10/11 08:11:32;;;;;;;10.88;5.30;;;;;;;8.99;100.00;94844.78;10157049;29;20032;-74
2021/10/11 08:16:33;;;;;;;11.43;4.53;;;;;;;9.01;100.00;94846.13;10155958;29;20051;-73
2021/10/11 08:21:34;;;;;;;8.45;4.50;;;;;;;9.04;100.00;94842.94;10157941;29;20276;-71
2021/10/11 08:26:35;;;;;;;6.70;3.90;;;;;;;9.14;100.00;94846.72;10157655;29;20024;-67
2021/10/11 08:31:36;;;;;;;8.05;4.10;;;;;;;9.32;100.00;94835.56;10156150;29;20411;-73
2021/10/11 08:36:36;;;;;;;5.50;4.65;;;;;;;9.61;100.00;94843.13;10156890;29;20084;-68
2021/10/11 08:41:38;;;;;;;9.33;4.40;;;;;;;9.69;100.00;94834.56;10160829;29;20138;-67
2021/10/11 08:46:39;;;;;;;5.72;3.72;;;;;;;9.55;100.00;94834.28;10164819;29;20628;-72
2021/10/11 08:51:39;;;;;;;7.20;3.75;;;;;;;9.60;100.00;94827.31;10165486;29;20032;-74
2021/10/11 08:56:40;;;;;;;9.73;4.33;;;;;;;9.61;100.00;94816.31;10163187;29;20059;-69
2021/10/11 09:01:40;;;;;;;10.25;5.78;;;;;;;9.60;100.00;94830.00;10162631;29;20312;-72
2021/10/11 09:06:47;;;;;;;9.25;4.65;;;;;;;9.62;100.00;94825.19;10178484;29;20040;-69
2021/10/11 09:11:47;;;;;;;12.38;6.60;;;;;;;9.65;100.00;94838.84;10162268;29;20094;-67
2021/10/11 09:17:04;;;;;;;8.27;4.13;;;;;;;9.60;100.00;94830.81;10178398;29;20090;-73
2021/10/11 09:22:05;;;;;;;9.25;5.18;;;;;;;9.61;100.00;94826.25;10178930;29;20268;-68
2021/10/11 09:27:05;;;;;;;11.10;5.47;;;;;;;9.56;100.00;94824.38;10162316;29;20020;-74
2021/10/11 09:32:08;;;;;;;8.82;4.88;;;;;;;9.58;100.00;94811.47;10161907;29;20078;-68
2021/10/11 09:37:12;;;;;;;10.65;4.35;;;;;;;9.67;100.00;94809.91;10177838;29;20028;-73
2021/10/11 09:42:14;;;;;;;6.88;3.05;;;;;;;9.70;100.00;94798.63;10161636;29;20040;-70
2021/10/11 09:47:32;;;;;;;7.07;3.20;;;;;;;9.83;100.00;94794.59;10177238;29;20039;-68
2021/10/11 09:52:32;;;;;;;5.50;3.83;;;;;;;9.98;100.00;94788.47;10160596;29;20080;-66
2021/10/11 09:57:33;;;;;;;9.05;4.47;;;;;;;10.00;100.00;94772.88;10176927;29;20111;-68
2021/10/11 10:02:36;;;;;;;9.50;4.57;;;;;;;9.99;100.00;94773.97;10161797;29;20048;-74
2021/10/11 10:07:42;;;;;;;8.63;5.25;;;;;;;10.15;100.00;94765.91;10176135;29;20520;-73
2021/10/11 10:12:47;;;;;;;8.57;4.90;;;;;;;10.12;100.00;94758.38;10160497;29;20032;-69
2021/10/11 10:18:07;;;;;;;10.52;5.43;;;;;;;10.21;100.00;94762.97;10162227;29;20483;-72
2021/10/11 10:23:08;;;;;;;10.88;4.72;;;;;;;10.29;100.00;94755.44;10159990;29;20036;-72
2021/10/11 10:28:12;;;;;;;9.00;5.27;;;;;;;10.35;100.00;94757.03;10161166;29;20063;-74
2021/10/11 10:33:16;;;;;;;10.20;5.60;;;;;;;10.34;100.00;94745.50;10160678;29;20028;-70
2021/10/11 10:38:20;;;;;;;7.68;4.53;;;;;;;10.31;100.00;94737.97;10159615;29;20043;-70
2021/10/11 10:43:21;;;;;;;9.65;4.22;;;;;;;10.30;100.00;94730.16;10144100;29;20055;-68
2021/10/11 10:48:24;;;;;;;10.40;4.82;;;;;;;10.39;100.00;94721.31;10175180;29;20102;-73
2021/10/11 10:53:28;;;;;;;10.38;4.97;;;;;;;10.47;100.00;94724.53;10175731;29;20438;-72
2021/10/11 10:58:28;;;;;;;7.93;4.82;;;;;;;10.64;100.00;94721.53;10160838;29;20032;-72
2021/10/11 11:03:29;;;;;;;8.20;3.90;;;;;;;10.66;100.00;94712.13;10158423;29;20055;-71
2021/10/11 11:08:29;;;;;;;9.23;4.97;;;;;;;10.67;100.00;94713.69;10158149;29;20394;-72
2021/10/11 11:13:30;;;;;;;9.27;5.10;;;;;;;10.71;100.00;94701.31;10156294;29;20111;-71
2021/10/11 11:18:31;;;;;;;11.27;5.80;;;;;;;10.69;100.00;94702.66;10172746;29;20517;-72
2021/10/11 11:23:34;;;;;;;11.57;5.70;;;;;;;10.56;100.00;94696.00;10158069;29;20039;-68
2021/10/11 11:28:36;;;;;;;8.25;4.20;;;;;;;10.57;100.00;94693.03;10158347;29;20091;-73
2021/10/11 11:33:42;;;;;;;10.20;5.30;;;;;;;10.63;100.00;94685.75;10158697;29;20495;-73
2021/10/11 11:38:42;;;;;;;7.45;4.80;;;;;;;10.69;100.00;94682.00;10157647;29;20494;-68
2021/10/11 11:43:43;;;;;;;7.18;3.95;;;;;;;10.77;100.00;94675.22;10158440;29;20040;-66
2021/10/11 11:48:44;;;;;;;7.68;5.03;;;;;;;10.83;100.00;94676.00;10157227;29;20043;-66
2021/10/11 11:53:45;;;;;;;8.02;4.80;;;;;;;11.04;100.00;94674.03;10114903;29;20032;-68
2021/10/11 11:58:50;;;;;;;8.13;4.50;;;;;;;11.10;100.00;94657.56;10132810;29;20048;-69
2021/10/11 12:03:53;;;;;;;8.13;4.03;;;;;;;11.19;100.00;94657.00;10118327;29;20052;-76
2021/10/11 12:08:55;;;;;;;8.23;5.38;;;;;;;11.19;100.00;94660.50;10117630;29;20104;-67
2021/10/11 12:13:57;;;;;;;5.32;3.42;;;;;;;11.37;100.00;94647.47;10134141;29;20047;-71
2021/10/11 12:19:04;;;;;;;7.32;3.67;;;;;;;11.43;100.00;94639.09;10141029;29;20035;-68
2021/10/11 12:24:18;;;;;;;5.35;3.20;;;;;;;11.42;100.00;94633.97;10125422;29;20513;-72
2021/10/11 12:29:20;;;;;;;6.88;2.75;;;;;;;11.31;100.00;94630.56;10124963;29;20016;-72
2021/10/11 12:34:27;;;;;;;5.25;3.30;;;;;;;11.28;100.00;94636.50;10126006;29;20426;-73
2021/10/11 12:39:49;;;;;;;5.22;3.35;;;;;;;11.67;100.00;94624.91;10124203;29;20028;-64
2021/10/11 12:44:55;;;;;;;5.75;2.90;;;;;;;12.12;100.00;94620.19;10152807;29;20036;-70
2021/10/11 12:49:58;;;;;;;6.45;3.33;;;;;;;12.39;100.00;94610.75;10165284;29;20036;-69
2021/10/11 12:55:06;;;;;;;4.60;2.80;;;;;;;12.56;100.00;94604.06;10178567;29;20079;-67
2021/10/11 13:00:09;;;;;;;5.05;3.03;;;;;;;12.41;100.00;94603.16;10162514;29;20107;-72
2021/10/11 13:05:11;;;;;;;7.55;2.80;;;;;;;12.29;100.00;94602.75;10162442;29;20558;-73
2021/10/11 13:10:13;;;;;;;5.85;3.03;;;;;;;12.10;100.00;94587.34;10162253;29;20040;-73
2021/10/11 13:15:13;;;;;;;3.70;2.33;;;;;;;12.04;100.00;94582.28;10178280;29;20032;-68
2021/10/11 13:20:14;;;;;;;4.35;2.80;;;;;;;11.88;100.00;94587.81;10162184;29;20465;-72
2021/10/11 13:25:14;;;;;;;6.22;3.28;;;;;;;11.94;100.00;94581.34;10176697;29;20175;-67
2021/10/11 13:41:20;;;;;;;5.55;2.83;;;;;;;12.02;100.00;94584.50;10162781;29;20032;-72
2021/10/11 14:28:04;;;;;;;6.70;3.53;;;;;;;11.74;100.00;94558.06;10173100;29;20114;-75
2021/10/11 16:03:31;;;;;;;8.88;4.53;;;;;;;10.84;100.00;94545.88;10166044;29;20438;-71
2021/10/11 16:08:32;;;;;;;8.07;4.47;;;;;;;10.63;100.00;94548.69;10166169;29;20033;-69
2021/10/11 16:13:33;;;;;;;8.30;4.35;;;;;;;10.55;100.00;94558.16;10166299;29;20095;-69
2021/10/11 16:18:37;;;;;;;7.95;4.50;;;;;;;10.41;100.00;94562.53;10143486;29;20036;-68
2021/10/11 16:23:39;;;;;;;8.63;4.63;;;;;;;10.18;100.00;94559.38;10162968;29;20438;-73
2021/10/11 16:28:41;;;;;;;10.13;4.57;;;;;;;10.00;100.00;94568.81;10162622;29;20028;-74
2021/10/11 16:33:43;;;;;;;11.45;5.25;;;;;;;9.91;100.00;94570.47;10179562;29;20087;-72
2021/10/11 16:38:45;;;;;;;11.00;4.60;;;;;;;9.84;100.00;94568.06;10167674;29;20275;-68
2021/10/11 16:43:49;;;;;;;11.48;5.07;;;;;;;9.81;100.00;94578.53;10147992;29;20048;-74
2021/10/11 16:48:52;;;;;;;20.33;8.10;;;;;;;9.78;100.00;94584.47;10146954;29;20152;-67
2021/10/11 16:59:00;;;;;;;145.90;49.10;;;;;;;9.75;100.00;94573.19;10163730;29;20050;-73
2021/10/11 17:04:02;;;;;;;10.95;5.90;;;;;;;9.67;100.00;94575.63;10160003;29;20048;-68
2021/10/11 17:09:03;;;;;;;6.43;4.10;;;;;;;9.66;100.00;94568.66;10159373;29;20032;-65
2021/10/11 17:14:05;;;;;;;7.35;4.32;;;;;;;9.54;100.00;94571.63;10143331;29;20181;-72
2021/10/11 17:19:06;;;;;;;8.32;4.30;;;;;;;9.55;100.00;94583.97;10160517;29;20388;-67
2021/10/11 17:24:09;;;;;;;6.43;4.05;;;;;;;9.65;100.00;94575.09;10158889;29;20538;-73
2021/10/11 17:29:10;;;;;;;9.70;4.68;;;;;;;9.73;100.00;94571.84;10159065;29;20087;-64
2021/10/11 17:34:10;;;;;;;7.40;4.68;;;;;;;9.81;100.00;94563.25;10160207;29;20036;-71
2021/10/11 17:39:11;;;;;;;8.88;4.65;;;;;;;9.78;100.00;94563.78;10158432;29;20032;-74
2021/10/11 17:44:11;;;;;;;9.40;5.05;;;;;;;9.68;100.00;94564.59;10158461;29;20573;-73
2021/10/11 17:49:12;;;;;;;8.23;5.72;;;;;;;9.65;100.00;94569.72;10157624;29;20032;-71
2021/10/11 17:54:12;;;;;;;9.63;4.82;;;;;;;9.46;100.00;94580.19;10158358;29;20475;-68
2021/10/11 17:59:13;;;;;;;11.53;5.40;;;;;;;9.27;100.00;94588.81;10158998;29;20028;-68
2021/10/11 18:04:19;;;;;;;10.50;5.45;;;;;;;9.34;100.00;94586.66;10118722;29;1242281;-70
2021/10/11 18:09:20;;;;;;;10.38;5.47;;;;;;;9.25;100.00;94574.84;10176039;29;20367;-67
2021/10/11 18:14:20;;;;;;;11.00;6.05;;;;;;;9.20;100.00;94586.38;10160579;29;20454;-69
2021/10/11 18:19:21;;;;;;;12.77;4.95;;;;;;;9.17;100.00;94602.22;10162240;29;20084;-73
2021/10/11 18:24:22;;;;;;;12.93;5.80;;;;;;;9.14;100.00;94592.00;10159082;29;20059;-69
2021/10/11 18:29:23;;;;;;;8.48;4.65;;;;;;;9.19;100.00;94581.28;10159380;29;20526;-68
2021/10/11 18:34:23;;;;;;;10.48;6.05;;;;;;;9.23;100.00;94575.13;10159118;29;20032;-73
2021/10/11 18:39:24;;;;;;;7.00;4.10;;;;;;;9.32;100.00;94577.25;10158358;29;20032;-66
2021/10/11 18:44:24;;;;;;;8.77;4.43;;;;;;;9.39;100.00;94570.56;10158340;29;20718;-67
2021/10/11 18:49:25;;;;;;;8.68;4.75;;;;;;;9.35;100.00;94561.44;10157028;29;20028;-73
2021/10/11 18:54:26;;;;;;;8.98;4.28;;;;;;;9.16;100.00;94573.78;10174368;29;20067;-67
2021/10/11 18:59:26;;;;;;;11.95;4.80;;;;;;;9.16;100.00;94582.63;10158198;29;20496;-72
2021/10/11 19:04:27;;;;;;;10.40;4.90;;;;;;;9.29;100.00;94586.63;10157242;29;20052;-67
2021/10/11 19:09:27;;;;;;;9.93;5.47;;;;;;;9.23;100.00;94593.88;10159069;29;20679;-69
2021/10/11 19:14:29;;;;;;;14.23;7.43;;;;;;;9.31;100.00;94589.88;10157970;29;20118;-67
2021/10/11 19:19:29;;;;;;;10.10;5.75;;;;;;;9.20;100.00;94607.84;10158230;29;20416;-70
2021/10/11 19:24:30;;;;;;;11.40;5.95;;;;;;;9.22;100.00;94599.53;10158210;29;20523;-67
2021/10/11 19:29:30;;;;;;;14.13;5.57;;;;;;;9.16;100.00;94597.91;10156494;29;20147;-67
2021/10/11 19:34:31;;;;;;;11.27;5.93;;;;;;;9.17;100.00;94576.19;10173125;29;20035;-69
2021/10/11 19:39:31;;;;;;;8.77;4.95;;;;;;;9.20;100.00;94580.22;10172974;29;20024;-68
2021/10/11 19:44:32;;;;;;;11.10;4.70;;;;;;;9.22;100.00;94589.63;10158181;29;20036;-67
2021/10/11 19:49:32;;;;;;;11.95;5.50;;;;;;;9.28;100.00;94554.72;10157919;29;20467;-67
2021/10/11 19:54:32;;;;;;;10.95;5.75;;;;;;;9.23;100.00;94560.91;10156332;29;20422;-68
2021/10/11 19:59:33;;;;;;;12.55;5.90;;;;;;;9.24;100.00;94590.13;10172450;29;20038;-71
2021/10/11 20:04:33;;;;;;;12.53;5.37;;;;;;;9.34;100.00;94588.53;10171625;29;20054;-66
2021/10/11 20:09:34;;;;;;;15.27;6.50;;;;;;;9.34;100.00;94583.19;10156457;29;20281;-73
2021/10/11 20:14:34;;;;;;;14.15;5.07;;;;;;;9.34;100.00;94570.56;10157320;29;20268;-68
2021/10/11 20:19:34;;;;;;;10.97;5.13;;;;;;;9.44;100.00;94558.22;10155998;29;20020;-69
2021/10/11 20:24:35;;;;;;;12.13;5.85;;;;;;;9.45;100.00;94554.47;10171066;29;20300;-70
2021/10/11 20:29:36;;;;;;;11.00;5.28;;;;;;;9.52;100.00;94561.16;10171939;29;20032;-69
2021/10/11 20:34:36;;;;;;;12.95;5.63;;;;;;;9.66;100.00;94553.34;10157124;29;20607;-74
2021/10/11 20:39:37;;;;;;;6.45;4.38;;;;;;;9.63;100.00;94543.16;10193581;29;20028;-69
2021/10/11 20:44:38;;;;;;;10.63;5.53;;;;;;;9.58;100.00;94527.88;10200317;28;20054;-69
2021/10/11 20:49:38;;;;;;;8.05;4.82;;;;;;;9.60;100.00;94529.47;10164493;29;20812;-74
2021/10/11 20:54:38;;;;;;;14.75;5.43;;;;;;;9.64;100.00;94527.88;10162748;29;20043;-69
2021/10/11 20:59:40;;;;;;;8.20;4.37;;;;;;;9.67;100.00;94520.09;10147930;29;20216;-68
2021/10/11 21:04:40;;;;;;;9.68;4.78;;;;;;;9.69;100.00;94536.69;10179057;29;20315;-68
2021/10/11 21:09:41;;;;;;;12.70;5.30;;;;;;;9.63;100.00;94532.44;10178802;29;20036;-68
2021/10/11 21:14:41;;;;;;;11.97;6.37;;;;;;;9.52;100.00;94528.97;10164305;29;20028;-69
2021/10/11 21:19:42;;;;;;;13.15;5.47;;;;;;;9.65;100.00;94532.94;10162283;29;20794;-68
2021/10/11 21:24:42;;;;;;;11.70;5.10;;;;;;;9.57;100.00;94552.28;10163277;29;20036;-76
2021/10/11 21:29:43;;;;;;;14.48;6.07;;;;;;;9.50;100.00;94562.50;10162304;29;20035;-67
2021/10/11 21:34:43;;;;;;;25.23;12.93;;;;;;;9.52;100.00;94558.47;10162226;29;20028;-67
2021/10/11 21:39:44;;;;;;;15.60;6.83;;;;;;;9.66;100.00;94553.34;10161717;29;20295;-68
2021/10/11 21:44:44;;;;;;;10.02;6.10;;;;;;;9.70;100.00;94545.56;10162590;29;20658;-69
2021/10/11 21:49:44;;;;;;;15.90;7.35;;;;;;;9.80;100.00;94539.38;10160845;29;20510;-68
2021/10/11 21:54:45;;;;;;;13.38;5.95;;;;;;;9.81;100.00;94527.53;10161081;29;20198;-72
2021/10/11 21:59:45;;;;;;;13.18;6.60;;;;;;;9.80;100.00;94524.06;10177052;29;20032;-72
2021/10/11 22:04:46;;;;;;;14.73;6.53;;;;;;;9.85;100.00;94515.19;10160851;29;20138;-72
2021/10/11 22:09:46;;;;;;;17.47;8.33;;;;;;;9.81;100.00;94514.94;10160861;29;20291;-68
2021/10/11 22:14:46;;;;;;;14.50;7.30;;;;;;;9.81;100.00;94503.38;10176234;29;20686;-68
2021/10/11 22:19:47;;;;;;;18.83;8.07;;;;;;;9.83;100.00;94491.31;10176200;29;20383;-67
2021/10/11 22:24:48;;;;;;;18.77;7.53;;;;;;;9.85;100.00;94499.91;10160542;29;20032;-67
2021/10/11 22:29:49;;;;;;;17.05;7.03;;;;;;;9.93;100.00;94482.41;10175568;29;20860;-67
2021/10/11 22:34:49;;;;;;;17.30;8.02;;;;;;;9.98;100.00;94478.91;10160167;29;20039;-71
2021/10/11 22:39:50;;;;;;;16.47;6.60;;;;;;;9.91;100.00;94498.00;10161025;29;20490;-68
2021/10/11 22:44:50;;;;;;;16.17;7.18;;;;;;;9.82;100.00;94487.00;10158871;29;20291;-68
2021/10/11 22:49:51;;;;;;;18.55;8.07;;;;;;;9.82;100.00;94462.06;10159491;29;20024;-75
2021/10/11 22:54:51;;;;;;;19.77;8.38;;;;;;;9.55;100.00;94460.56;10159173;29;20431;-69
2021/10/11 22:59:51;;;;;;;23.93;10.27;;;;;;;9.44;100.00;94469.72;10173928;29;20032;-70
2021/10/11 23:04:52;;;;;;;16.02;8.50;;;;;;;9.17;100.00;94457.44;10159948;29;20300;-72
2021/10/11 23:09:52;;;;;;;17.17;8.40;;;;;;;9.25;100.00;94462.22;10159523;29;20032;-67
2021/10/11 23:14:53;;;;;;;20.52;8.38;;;;;;;9.22;100.00;94465.44;10158284;29;20284;-67
2021/10/11 23:19:53;;;;;;;19.17;8.63;;;;;;;9.28;100.00;94456.34;10157649;29;20403;-72
2021/10/11 23:24:54;;;;;;;19.92;8.55;;;;;;;9.37;100.00;94454.69;10158776;29;20331;-68
2021/10/11 23:29:54;;;;;;;16.02;8.00;;;;;;;9.46;100.00;94452.28;10158435;29;20111;-66
2021/10/11 23:34:55;;;;;;;24.83;8.48;;;;;;;9.51;100.00;94441.50;10158439;29;20615;-67
2021/10/11 23:39:55;;;;;;;22.85;9.10;;;;;;;9.57;100.00;94432.38;10157976;29;20032;-68
2021/10/11 23:44:56;;;;;;;21.58;9.18;;;;;;;9.66;100.00;94423.75;10173521;29;20551;-72
2021/10/11 23:49:56;;;;;;;25.02;9.18;;;;;;;9.65;100.00;94417.56;10157406;29;20026;-72
2021/10/11 23:54:57;;;;;;;26.58;9.05;;;;;;;9.65;100.00;94414.91;10158613;29;20048;-67
2021/10/11 23:59:57;;;;;;;21.25;8.95;;;;;;;9.67;100.00;94391.28;10173497;29;20091;-71
